createdAt,value
2024-03-11T00:00:42.474Z,5.29
2024-03-11T00:04:44.040Z,5.41
2024-03-11T00:08:45.666Z,5.35
2024-03-11T00:12:48.380Z,5.21
2024-03-11T00:16:51.246Z,5.22
2024-03-11T00:20:52.810Z,5.45
2024-03-11T00:24:54.326Z,5.52
2024-03-11T00:28:55.847Z,5.61
2024-03-11T00:32:58.837Z,5.51
2024-03-11T00:37:00.622Z,5.45
2024-03-11T00:41:02.213Z,5.47
2024-03-11T00:45:04.280Z,5.29
2024-03-11T00:49:09.248Z,5.41
2024-03-11T00:53:11.284Z,5.51
2024-03-11T00:57:15.738Z,5.37
2024-03-11T01:01:17.246Z,5.35
2024-03-11T01:05:20.210Z,5.41
2024-03-11T01:09:21.769Z,5.21
2024-03-11T01:13:23.322Z,5.06
2024-03-11T01:17:24.818Z,5.08
2024-03-11T01:21:27.819Z,5.06
2024-03-11T01:25:29.299Z,5.07
2024-03-11T01:29:30.824Z,4.96
2024-03-11T01:33:32.400Z,4.96
2024-03-11T01:37:35.245Z,4.93
2024-03-11T01:41:37.442Z,4.82
2024-03-11T01:45:39.055Z,4.73
2024-03-11T01:49:42.729Z,4.74
2024-03-11T01:53:45.631Z,4.97
2024-03-11T01:57:47.298Z,4.94
2024-03-11T02:01:48.883Z,4.96
2024-03-11T02:05:50.550Z,4.92
2024-03-11T02:09:53.501Z,4.86
2024-03-11T02:13:55.037Z,4.94
2024-03-11T02:17:56.831Z,5.02
2024-03-11T02:21:58.463Z,5.08
2024-03-11T02:26:01.426Z,5.13
2024-03-11T02:30:03.202Z,5.19
2024-03-11T02:34:04.707Z,5.18
2024-03-11T02:38:06.835Z,5.18
2024-03-11T02:42:10.883Z,5.20
2024-03-11T02:46:12.401Z,5.22
2024-03-11T02:50:13.997Z,5.26
2024-03-11T02:54:15.655Z,5.31
2024-03-11T02:58:18.581Z,5.34
2024-03-11T03:02:20.281Z,5.40
2024-03-11T03:06:21.750Z,5.36
2024-03-11T03:10:23.354Z,5.31
2024-03-11T03:14:26.208Z,5.46
2024-03-11T03:18:27.803Z,5.65
2024-03-11T03:22:29.426Z,5.80
2024-03-11T03:26:30.971Z,5.89
2024-03-11T03:30:33.829Z,6.11
2024-03-11T03:34:35.325Z,6.18
2024-03-11T03:38:36.939Z,6.28
2024-03-11T03:42:38.439Z,6.46
2024-03-11T03:46:42.440Z,6.55
2024-03-11T03:50:44.085Z,6.56
2024-03-11T03:54:45.645Z,6.44
2024-03-11T03:58:49.977Z,6.45
2024-03-11T04:02:52.861Z,6.54
2024-03-11T04:06:54.396Z,6.79
2024-03-11T04:10:56.085Z,6.94
2024-03-11T04:14:57.591Z,6.95
2024-03-11T04:19:00.591Z,7.01
2024-03-11T04:23:02.189Z,7.12
2024-03-11T04:27:03.986Z,7.14
2024-03-11T04:31:05.499Z,7.30
2024-03-11T04:35:09.031Z,7.32
2024-03-11T04:39:10.642Z,7.46
2024-03-11T04:43:12.345Z,7.69
2024-03-11T04:47:14.010Z,7.58
2024-03-11T04:51:16.930Z,7.57
2024-03-11T04:55:18.674Z,7.54
2024-03-11T04:59:20.383Z,7.63
2024-03-11T05:03:21.899Z,7.56
2024-03-11T05:07:24.718Z,7.31
2024-03-11T05:11:26.365Z,7.23
2024-03-11T05:15:28.308Z,7.10
2024-03-11T05:19:30.042Z,7.08
2024-03-11T05:23:32.982Z,6.98
2024-03-11T05:27:34.556Z,6.97
2024-03-11T05:31:36.151Z,6.84
2024-03-11T05:35:37.694Z,6.78
2024-03-11T05:39:40.862Z,6.62
2024-03-11T05:43:45.359Z,6.64
2024-03-11T05:47:47.281Z,6.67
2024-03-11T05:51:49.078Z,6.74
2024-03-11T05:55:52.317Z,6.77
2024-03-11T05:59:54.648Z,6.75
2024-03-11T06:03:56.483Z,6.66
2024-03-11T06:07:58.611Z,6.69
2024-03-11T06:12:02.335Z,6.78
2024-03-11T06:16:04.800Z,6.80
2024-03-11T06:20:08.101Z,6.90
2024-03-11T06:24:10.443Z,6.91
2024-03-11T06:28:13.969Z,6.91
2024-03-11T06:32:16.233Z,6.93
2024-03-11T06:36:18.431Z,7.07
2024-03-11T06:40:20.722Z,7.07
2024-03-11T06:44:32.921Z,7.05
2024-03-11T06:48:41.553Z,7.26
2024-03-11T06:52:43.544Z,7.42
2024-03-11T06:56:45.692Z,7.57
2024-03-11T07:00:49.454Z,7.49
2024-03-11T07:04:51.687Z,7.54
2024-03-11T07:08:53.825Z,7.59
2024-03-11T07:12:55.607Z,7.54
2024-03-11T07:17:01.367Z,7.74
2024-03-11T07:21:05.260Z,7.95
2024-03-11T07:25:08.084Z,8.14
2024-03-11T07:29:10.366Z,8.35
2024-03-11T07:33:14.060Z,8.55
2024-03-11T07:37:16.158Z,8.64
2024-03-11T07:41:18.590Z,8.57
2024-03-11T07:45:21.125Z,8.54
2024-03-11T07:49:24.296Z,8.55
2024-03-11T07:53:27.587Z,8.73
2024-03-11T07:57:29.751Z,8.84
2024-03-11T08:01:32.225Z,9.08
2024-03-11T08:05:35.742Z,8.87
2024-03-11T08:09:37.613Z,9.09
2024-03-11T08:13:39.541Z,8.98
2024-03-11T08:17:42.442Z,8.92
2024-03-11T08:21:45.756Z,8.93
2024-03-11T08:25:47.630Z,9.01
2024-03-11T08:29:49.425Z,9.16
2024-03-11T08:33:51.365Z,9.39
2024-03-11T08:37:54.673Z,9.37
2024-03-11T08:41:56.654Z,9.47
2024-03-11T08:45:58.786Z,9.60
2024-03-11T08:50:00.861Z,9.76
2024-03-11T08:54:05.296Z,9.86
2024-03-11T08:58:07.191Z,10.12
2024-03-11T09:02:09.977Z,10.12
2024-03-11T09:06:11.997Z,10.10
2024-03-11T09:10:15.869Z,10.24
2024-03-11T09:14:18.137Z,10.39
2024-03-11T09:18:20.116Z,10.43
2024-03-11T09:22:22.176Z,10.43
2024-03-11T09:26:25.745Z,10.54
2024-03-11T09:30:31.376Z,10.72
2024-03-11T09:34:34.021Z,10.82
2024-03-11T09:38:36.346Z,11.14
2024-03-11T09:42:40.338Z,11.30
2024-03-11T09:46:43.464Z,11.29
2024-03-11T09:50:46.049Z,11.42
2024-03-11T09:54:48.111Z,11.39
2024-03-11T09:58:57.596Z,11.67
2024-03-11T10:03:00.793Z,11.87
2024-03-11T10:07:04.333Z,11.96
2024-03-11T10:11:14.064Z,11.78
2024-03-11T10:15:26.825Z,11.96
2024-03-11T10:19:29.221Z,11.88
2024-03-11T10:23:31.429Z,12.15
2024-03-11T10:27:33.830Z,12.36
2024-03-11T10:31:37.324Z,12.19
2024-03-11T10:35:39.378Z,12.23
2024-03-11T10:39:41.580Z,12.42
2024-03-11T10:43:43.938Z,12.70
2024-03-11T10:47:47.469Z,13.38
2024-03-11T10:51:49.797Z,13.48
2024-03-11T10:55:53.896Z,13.41
2024-03-11T10:59:58.906Z,12.57
2024-03-11T11:04:05.028Z,12.73
2024-03-11T11:08:08.510Z,13.07
2024-03-11T11:12:11.075Z,13.11
2024-03-11T11:16:13.841Z,13.30
2024-03-11T11:20:17.998Z,13.02
2024-03-11T11:24:28.948Z,13.29
2024-03-11T11:28:33.143Z,13.18
2024-03-11T11:32:34.991Z,12.72
2024-03-11T11:36:59.790Z,13.13
2024-03-11T11:41:02.015Z,12.93
2024-03-11T11:45:05.158Z,12.74
2024-03-11T11:49:17.598Z,12.73
2024-03-11T11:53:28.546Z,12.95
2024-03-11T11:57:30.452Z,13.11
2024-03-11T12:01:47.126Z,13.51
2024-03-11T12:06:02.388Z,12.91
2024-03-11T12:10:07.891Z,13.38
2024-03-11T12:14:09.968Z,13.74
2024-03-11T12:18:14.232Z,13.82
2024-03-11T12:22:16.562Z,13.96
2024-03-11T12:26:20.118Z,13.64
2024-03-11T12:30:26.546Z,13.79
2024-03-11T12:34:28.974Z,13.37
2024-03-11T12:38:31.148Z,13.18
2024-03-11T12:42:34.841Z,13.32
2024-03-11T12:46:37.087Z,13.47
2024-03-11T12:50:39.466Z,13.94
2024-03-11T12:54:41.808Z,14.21
2024-03-11T12:58:45.128Z,14.46
2024-03-11T13:02:47.530Z,14.96
2024-03-11T13:06:49.654Z,15.08
2024-03-11T13:10:58.575Z,15.19
2024-03-11T13:15:03.155Z,16.87
2024-03-11T13:19:07.194Z,17.66
2024-03-11T13:23:11.251Z,17.74
2024-03-11T13:27:13.539Z,17.75
2024-03-11T13:31:17.564Z,16.58
2024-03-11T13:35:20.695Z,17.68
2024-03-11T13:39:22.819Z,16.09
2024-03-11T13:43:25.261Z,18.05
2024-03-11T13:47:29.162Z,18.65
2024-03-11T13:51:31.199Z,16.48
2024-03-11T13:55:33.182Z,16.11
2024-03-11T13:59:35.575Z,14.13
2024-03-11T14:03:39.309Z,13.39
2024-03-11T14:07:43.879Z,13.54
2024-03-11T14:11:46.604Z,12.86
2024-03-11T14:15:48.855Z,12.90
2024-03-11T14:19:53.807Z,12.91
2024-03-11T14:23:55.807Z,13.51
2024-03-11T14:27:58.729Z,14.52
2024-03-11T14:32:00.725Z,14.00
2024-03-11T14:36:04.990Z,13.93
2024-03-11T14:40:07.993Z,13.15
2024-03-11T14:44:10.244Z,13.05
2024-03-11T14:48:13.428Z,13.32
2024-03-11T14:52:17.310Z,12.90
2024-03-11T14:56:19.100Z,12.75
2024-03-11T15:00:20.860Z,12.75
2024-03-11T15:04:22.955Z,12.42
2024-03-11T15:08:26.397Z,12.32
2024-03-11T15:12:28.006Z,12.06
2024-03-11T15:16:29.654Z,11.84
2024-03-11T15:20:31.647Z,11.53
2024-03-11T15:24:34.574Z,11.59
2024-03-11T15:28:36.114Z,11.36
2024-03-11T15:32:37.707Z,11.40
2024-03-11T15:36:39.353Z,11.34
2024-03-11T15:40:42.283Z,11.29
2024-03-11T15:44:43.798Z,11.36
2024-03-11T15:48:45.323Z,11.24
2024-03-11T15:52:48.615Z,11.05
2024-03-11T15:56:51.539Z,10.87
2024-03-11T16:00:54.021Z,10.74
2024-03-11T16:04:55.556Z,10.63
2024-03-11T16:08:57.017Z,10.48
2024-03-11T16:13:00.642Z,10.34
2024-03-11T16:17:02.251Z,10.27
2024-03-11T16:21:04.314Z,10.16
2024-03-11T16:25:06.440Z,10.02
2024-03-11T16:29:09.305Z,9.83
2024-03-11T16:33:10.852Z,9.56
2024-03-11T16:37:12.384Z,9.32
2024-03-11T16:41:13.927Z,9.07
2024-03-11T16:45:16.833Z,8.85
2024-03-11T16:49:18.617Z,8.71
2024-03-11T16:53:20.514Z,8.62
2024-03-11T16:57:22.148Z,8.50
2024-03-11T17:01:25.298Z,8.45
2024-03-11T17:05:27.356Z,8.54
2024-03-11T17:09:28.885Z,8.46
2024-03-11T17:13:30.509Z,8.37
2024-03-11T17:17:33.467Z,8.26
2024-03-11T17:21:34.999Z,8.23
2024-03-11T17:25:37.619Z,8.17
2024-03-11T17:29:39.217Z,8.02
2024-03-11T17:33:42.107Z,7.87
2024-03-11T17:37:44.291Z,7.92
2024-03-11T17:41:45.832Z,8.03
2024-03-11T17:45:48.650Z,8.04
2024-03-11T17:49:51.599Z,7.93
2024-03-11T17:53:53.198Z,7.89
2024-03-11T17:57:55.993Z,7.89
2024-03-11T18:01:57.700Z,7.78
2024-03-11T18:06:00.548Z,7.67
2024-03-11T18:10:02.610Z,7.61
2024-03-11T18:14:04.146Z,7.48
2024-03-11T18:18:07.175Z,7.46
2024-03-11T18:22:10.029Z,7.44
2024-03-11T18:26:13.781Z,7.47
2024-03-11T18:30:16.912Z,7.55
2024-03-11T18:34:18.522Z,7.61
2024-03-11T18:38:21.342Z,7.69
2024-03-11T18:42:22.815Z,7.71
2024-03-11T18:46:24.366Z,7.66
2024-03-11T18:50:25.950Z,7.40
2024-03-11T18:54:28.832Z,7.26
2024-03-11T18:58:30.389Z,7.24
2024-03-11T19:02:31.904Z,7.37
2024-03-11T19:06:33.682Z,7.43
2024-03-11T19:10:36.518Z,7.44
2024-03-11T19:14:38.161Z,7.35
2024-03-11T19:18:39.955Z,7.22
2024-03-11T19:22:42.835Z,6.96
2024-03-11T19:26:45.821Z,6.91
2024-03-11T19:30:49.098Z,6.99
2024-03-11T19:34:50.923Z,7.08
2024-03-11T19:39:03.767Z,7.25
2024-03-11T19:43:18.061Z,7.17
2024-03-11T19:48:02.662Z,7.12
2024-03-11T19:53:00.597Z,7.19
2024-03-11T19:57:39.067Z,7.21
2024-03-11T20:02:16.251Z,7.18
2024-03-11T20:06:32.652Z,7.10
2024-03-11T20:10:57.355Z,6.90
2024-03-11T20:15:01.608Z,6.76
2024-03-11T20:19:21.425Z,6.56
2024-03-11T20:23:53.969Z,6.46
2024-03-11T20:28:02.030Z,6.41
2024-03-11T20:32:12.584Z,6.31
2024-03-11T20:36:15.452Z,6.28
2024-03-11T20:40:17.579Z,6.38
2024-03-11T20:44:19.296Z,6.62
2024-03-11T20:48:21.167Z,6.64
2024-03-11T20:52:24.614Z,6.53
2024-03-11T20:56:26.158Z,6.46
2024-03-11T21:00:27.799Z,6.52
2024-03-11T21:04:29.346Z,6.67
2024-03-11T21:08:34.339Z,6.72
2024-03-11T21:12:37.295Z,6.74
2024-03-11T21:16:38.834Z,6.59
2024-03-11T21:20:40.567Z,6.53
2024-03-11T21:24:43.478Z,6.68
2024-03-11T21:28:45.598Z,6.56
2024-03-11T21:32:47.678Z,6.53
2024-03-11T21:36:49.270Z,6.33
2024-03-11T21:40:52.140Z,6.18
2024-03-11T21:44:53.805Z,6.11
2024-03-11T21:48:55.416Z,6.08
2024-03-11T21:52:56.933Z,6.22
2024-03-11T21:56:59.803Z,6.32
2024-03-11T22:01:01.407Z,6.38
2024-03-11T22:05:03.162Z,6.27
2024-03-11T22:09:04.918Z,5.90
2024-03-11T22:13:07.801Z,5.81
2024-03-11T22:17:09.352Z,5.80
2024-03-11T22:21:11.090Z,5.66
2024-03-11T22:25:13.552Z,5.64
2024-03-11T22:29:16.431Z,5.73
2024-03-11T22:33:19.147Z,5.82
2024-03-11T22:37:20.717Z,5.93
2024-03-11T22:41:25.933Z,6.03
2024-03-11T22:45:28.844Z,6.09
2024-03-11T22:49:30.444Z,6.11
2024-03-11T22:53:32.053Z,6.18
2024-03-11T22:57:33.735Z,6.14
2024-03-11T23:01:36.638Z,6.15
2024-03-11T23:05:38.131Z,6.02
2024-03-11T23:09:39.773Z,5.92
2024-03-11T23:13:41.474Z,5.82
2024-03-11T23:17:44.366Z,5.71
2024-03-11T23:21:45.995Z,5.54
2024-03-11T23:25:47.474Z,5.37
2024-03-11T23:29:48.986Z,5.28
2024-03-11T23:33:51.902Z,5.21
2024-03-11T23:37:53.443Z,5.02
2024-03-11T23:41:54.973Z,5.02
2024-03-11T23:45:56.613Z,5.12
2024-03-11T23:49:59.563Z,5.15
2024-03-11T23:54:01.106Z,5.32
2024-03-11T23:58:02.647Z,5.44
